sensor_id;sensor_type;location;lat;lon;timestamp;temperature;humidity
52189;DHT22;38162;45.926;13.608;2022-09-25T07:34:49;16.00;96.30
52189;DHT22;38162;45.926;13.608;2022-09-25T07:37:19;15.90;96.70
52189;DHT22;38162;45.926;13.608;2022-09-25T07:39:44;15.90;96.70
52189;DHT22;38162;45.926;13.608;2022-09-25T07:42:10;16.00;96.70
52189;DHT22;38162;45.926;13.608;2022-09-25T07:44:36;16.00;96.60
52189;DHT22;38162;45.926;13.608;2022-09-25T07:47:02;16.00;96.60
52189;DHT22;38162;45.926;13.608;2022-09-25T07:49:31;16.00;96.50
52189;DHT22;38162;45.926;13.608;2022-09-25T07:51:57;16.00;96.50
52189;DHT22;38162;45.926;13.608;2022-09-25T07:54:24;16.10;96.40
52189;DHT22;38162;45.926;13.608;2022-09-25T07:56:50;16.00;96.40
52189;DHT22;38162;45.926;13.608;2022-09-25T07:59:15;16.10;96.40
52189;DHT22;38162;45.926;13.608;2022-09-25T08:01:41;16.10;96.20
52189;DHT22;38162;45.926;13.608;2022-09-25T08:04:07;16.10;96.20
52189;DHT22;38162;45.926;13.608;2022-09-25T08:06:33;16.20;96.20
52189;DHT22;38162;45.926;13.608;2022-09-25T08:09:00;16.10;96.30
52189;DHT22;38162;45.926;13.608;2022-09-25T08:11:25;16.20;96.20
52189;DHT22;38162;45.926;13.608;2022-09-25T08:13:53;16.20;96.20
52189;DHT22;38162;45.926;13.608;2022-09-25T08:16:19;16.20;96.20
52189;DHT22;38162;45.926;13.608;2022-09-25T08:18:47;16.20;96.20
52189;DHT22;38162;45.926;13.608;2022-09-25T08:21:18;16.20;96.30
52189;DHT22;38162;45.926;13.608;2022-09-25T08:23:49;16.20;96.30
52189;DHT22;38162;45.926;13.608;2022-09-25T08:26:16;16.20;96.30
52189;DHT22;38162;45.926;13.608;2022-09-25T08:28:42;16.30;96.30
52189;DHT22;38162;45.926;13.608;2022-09-25T08:31:09;16.30;96.30
52189;DHT22;38162;45.926;13.608;2022-09-25T08:33:35;16.30;96.20
52189;DHT22;38162;45.926;13.608;2022-09-25T08:36:03;16.30;96.30
52189;DHT22;38162;45.926;13.608;2022-09-25T08:38:30;16.30;96.30
52189;DHT22;38162;45.926;13.608;2022-09-25T08:43:44;16.40;96.00
52189;DHT22;38162;45.926;13.608;2022-09-25T08:46:22;16.40;95.80
52189;DHT22;38162;45.926;13.608;2022-09-25T08:49:08;16.40;95.50
52189;DHT22;38162;45.926;13.608;2022-09-25T08:51:43;16.50;95.30
52189;DHT22;38162;45.926;13.608;2022-09-25T08:54:24;16.50;95.30
52189;DHT22;38162;45.926;13.608;2022-09-25T08:57:35;16.50;95.20
52189;DHT22;38162;45.926;13.608;2022-09-25T08:59:43;16.60;95.20
52189;DHT22;38162;45.926;13.608;2022-09-25T09:02:20;16.60;95.20
52189;DHT22;38162;45.926;13.608;2022-09-25T09:04:50;16.60;95.10
52189;DHT22;38162;45.926;13.608;2022-09-25T09:07:38;16.60;95.20
52189;DHT22;38162;45.926;13.608;2022-09-25T09:13:31;16.70;95.40
52189;DHT22;38162;45.926;13.608;2022-09-25T09:18:46;16.70;95.30
52189;DHT22;38162;45.926;13.608;2022-09-25T09:27:08;16.80;95.40
52189;DHT22;38162;45.926;13.608;2022-09-25T09:38:09;16.70;95.40
52189;DHT22;38162;45.926;13.608;2022-09-25T09:46:19;16.80;95.30
52189;DHT22;38162;45.926;13.608;2022-09-25T09:49:30;16.80;95.30
52189;DHT22;38162;45.926;13.608;2022-09-25T09:52:11;16.70;95.20
52189;DHT22;38162;45.926;13.608;2022-09-25T09:54:54;16.80;95.10
52189;DHT22;38162;45.926;13.608;2022-09-25T09:57:37;16.80;95.10
52189;DHT22;38162;45.926;13.608;2022-09-25T10:00:12;16.80;95.20
52189;DHT22;38162;45.926;13.608;2022-09-25T10:02:58;16.90;95.00
52189;DHT22;38162;45.926;13.608;2022-09-25T10:05:36;16.90;94.80
52189;DHT22;38162;45.926;13.608;2022-09-25T10:08:03;16.90;94.80
52189;DHT22;38162;45.926;13.608;2022-09-25T10:10:36;16.80;94.80
52189;DHT22;38162;45.926;13.608;2022-09-25T10:13:03;16.80;94.90
52189;DHT22;38162;45.926;13.608;2022-09-25T10:15:38;16.80;94.90
52189;DHT22;38162;45.926;13.608;2022-09-25T10:18:07;16.80;94.90
52189;DHT22;38162;45.926;13.608;2022-09-25T10:20:39;16.80;94.80
52189;DHT22;38162;45.926;13.608;2022-09-25T10:23:29;16.80;94.80
52189;DHT22;38162;45.926;13.608;2022-09-25T10:25:56;16.80;94.80
52189;DHT22;38162;45.926;13.608;2022-09-25T10:28:32;16.80;94.90
52189;DHT22;38162;45.926;13.608;2022-09-25T10:31:02;16.80;94.90
52189;DHT22;38162;45.926;13.608;2022-09-25T10:33:31;16.80;95.00
52189;DHT22;38162;45.926;13.608;2022-09-25T10:35:57;16.90;95.10
52189;DHT22;38162;45.926;13.608;2022-09-25T10:41:10;17.30;95.00
52189;DHT22;38162;45.926;13.608;2022-09-25T10:43:56;17.50;94.70
52189;DHT22;38162;45.926;13.608;2022-09-25T10:46:29;17.70;94.70
52189;DHT22;38162;45.926;13.608;2022-09-25T10:49:18;17.80;94.60
52189;DHT22;38162;45.926;13.608;2022-09-25T10:52:05;17.90;94.50
52189;DHT22;38162;45.926;13.608;2022-09-25T10:54:32;18.10;94.40
52189;DHT22;38162;45.926;13.608;2022-09-25T10:56:58;18.10;94.60
52189;DHT22;38162;45.926;13.608;2022-09-25T10:59:25;18.30;94.70
52189;DHT22;38162;45.926;13.608;2022-09-25T11:01:53;18.40;94.40
52189;DHT22;38162;45.926;13.608;2022-09-25T11:04:31;18.60;94.10
52189;DHT22;38162;45.926;13.608;2022-09-25T11:07:01;18.70;94.00
52189;DHT22;38162;45.926;13.608;2022-09-25T11:09:30;18.80;93.80
52189;DHT22;38162;45.926;13.608;2022-09-25T11:12:12;18.90;93.70
52189;DHT22;38162;45.926;13.608;2022-09-25T11:14:44;18.90;93.60
52189;DHT22;38162;45.926;13.608;2022-09-25T11:17:39;18.90;93.50
52189;DHT22;38162;45.926;13.608;2022-09-25T11:25:50;18.80;93.40
52189;DHT22;38162;45.926;13.608;2022-09-25T11:28:27;18.80;93.30
52189;DHT22;38162;45.926;13.608;2022-09-25T11:31:02;18.90;93.30
52189;DHT22;38162;45.926;13.608;2022-09-25T11:33:53;18.90;93.40
52189;DHT22;38162;45.926;13.608;2022-09-25T11:36:27;18.80;93.30
52189;DHT22;38162;45.926;13.608;2022-09-25T11:39:24;18.80;93.30
52189;DHT22;38162;45.926;13.608;2022-09-25T11:42:23;18.80;93.40
52189;DHT22;38162;45.926;13.608;2022-09-25T11:47:51;18.70;93.60
52189;DHT22;38162;45.926;13.608;2022-09-25T11:50:21;18.80;93.70
52189;DHT22;38162;45.926;13.608;2022-09-25T11:58:04;18.80;93.50
52189;DHT22;38162;45.926;13.608;2022-09-25T12:14:29;19.10;92.90
52189;DHT22;38162;45.926;13.608;2022-09-25T12:19:43;19.20;92.30
52189;DHT22;38162;45.926;13.608;2022-09-25T12:30:21;19.10;91.20
52189;DHT22;38162;45.926;13.608;2022-09-25T12:36:09;19.00;91.20
52189;DHT22;38162;45.926;13.608;2022-09-25T12:39:02;18.90;91.30
52189;DHT22;38162;45.926;13.608;2022-09-25T12:41:39;18.80;91.50
52189;DHT22;38162;45.926;13.608;2022-09-25T12:47:09;18.80;91.30
52189;DHT22;38162;45.926;13.608;2022-09-25T12:52:32;18.70;91.30
52189;DHT22;38162;45.926;13.608;2022-09-25T12:55:11;18.70;91.50
52189;DHT22;38162;45.926;13.608;2022-09-25T12:57:45;18.70;91.50
52189;DHT22;38162;45.926;13.608;2022-09-25T13:00:19;18.60;91.40
52189;DHT22;38162;45.926;13.608;2022-09-25T13:05:39;18.60;91.40
52189;DHT22;38162;45.926;13.608;2022-09-25T13:08:17;18.50;91.40
52189;DHT22;38162;45.926;13.608;2022-09-25T13:11:04;18.50;91.50
52189;DHT22;38162;45.926;13.608;2022-09-25T13:13:36;18.50;91.70
52189;DHT22;38162;45.926;13.608;2022-09-25T13:16:04;18.50;91.70
52189;DHT22;38162;45.926;13.608;2022-09-25T13:18:30;18.50;91.60
52189;DHT22;38162;45.926;13.608;2022-09-25T13:21:31;18.50;91.60
52189;DHT22;38162;45.926;13.608;2022-09-25T13:24:04;18.50;91.60
52189;DHT22;38162;45.926;13.608;2022-09-25T13:26:46;18.50;91.60
52189;DHT22;38162;45.926;13.608;2022-09-25T13:31:42;18.50;91.60
52189;DHT22;38162;45.926;13.608;2022-09-25T13:34:11;18.50;91.70
52189;DHT22;38162;45.926;13.608;2022-09-25T13:36:53;18.50;91.70
52189;DHT22;38162;45.926;13.608;2022-09-25T13:42:40;18.50;91.70
52189;DHT22;38162;45.926;13.608;2022-09-25T13:53:53;18.50;92.10
52189;DHT22;38162;45.926;13.608;2022-09-25T14:01:39;18.40;91.80
52189;DHT22;38162;45.926;13.608;2022-09-25T14:04:09;18.50;91.90
52189;DHT22;38162;45.926;13.608;2022-09-25T14:06:36;18.50;91.80
52189;DHT22;38162;45.926;13.608;2022-09-25T14:09:10;18.40;91.90
52189;DHT22;38162;45.926;13.608;2022-09-25T14:11:37;18.50;91.80
52189;DHT22;38162;45.926;13.608;2022-09-25T14:14:15;18.50;91.80
52189;DHT22;38162;45.926;13.608;2022-09-25T14:16:48;18.40;91.70
52189;DHT22;38162;45.926;13.608;2022-09-25T14:19:38;18.50;91.80
52189;DHT22;38162;45.926;13.608;2022-09-25T14:22:06;18.50;91.80
52189;DHT22;38162;45.926;13.608;2022-09-25T14:24:41;18.40;91.70
52189;DHT22;38162;45.926;13.608;2022-09-25T14:27:23;18.50;91.80
52189;DHT22;38162;45.926;13.608;2022-09-25T14:29:51;18.50;91.80
52189;DHT22;38162;45.926;13.608;2022-09-25T14:32:43;18.50;91.70
52189;DHT22;38162;45.926;13.608;2022-09-25T14:44:24;18.40;91.80
52189;DHT22;38162;45.926;13.608;2022-09-25T14:46:44;18.40;91.70
52189;DHT22;38162;45.926;13.608;2022-09-25T14:49:33;18.40;91.70
52189;DHT22;38162;45.926;13.608;2022-09-25T14:52:06;18.40;91.70
52189;DHT22;38162;45.926;13.608;2022-09-25T14:54:36;18.40;92.00
52189;DHT22;38162;45.926;13.608;2022-09-25T14:57:04;18.40;91.80
52189;DHT22;38162;45.926;13.608;2022-09-25T14:59:32;18.40;91.80
52189;DHT22;38162;45.926;13.608;2022-09-25T15:01:59;18.40;91.80
52189;DHT22;38162;45.926;13.608;2022-09-25T15:04:33;18.40;92.00
52189;DHT22;38162;45.926;13.608;2022-09-25T15:07:00;18.40;92.10
52189;DHT22;38162;45.926;13.608;2022-09-25T15:09:38;18.40;92.10
52189;DHT22;38162;45.926;13.608;2022-09-25T15:12:28;18.40;92.00
52189;DHT22;38162;45.926;13.608;2022-09-25T15:15:11;18.40;92.10
52189;DHT22;38162;45.926;13.608;2022-09-25T15:17:44;18.40;92.20
52189;DHT22;38162;45.926;13.608;2022-09-25T15:20:15;18.40;92.20
52189;DHT22;38162;45.926;13.608;2022-09-25T15:22:53;18.40;92.30
52189;DHT22;38162;45.926;13.608;2022-09-25T15:25:44;18.40;92.40
52189;DHT22;38162;45.926;13.608;2022-09-25T15:28:15;18.40;92.40
52189;DHT22;38162;45.926;13.608;2022-09-25T15:30:42;18.40;92.40
52189;DHT22;38162;45.926;13.608;2022-09-25T15:33:29;18.40;92.40
52189;DHT22;38162;45.926;13.608;2022-09-25T15:35:56;18.40;92.60
52189;DHT22;38162;45.926;13.608;2022-09-25T15:38:54;18.40;92.50
52189;DHT22;38162;45.926;13.608;2022-09-25T15:41:21;18.40;92.50
52189;DHT22;38162;45.926;13.608;2022-09-25T15:43:49;18.40;92.50
52189;DHT22;38162;45.926;13.608;2022-09-25T15:46:35;18.40;92.50
52189;DHT22;38162;45.926;13.608;2022-09-25T15:49:03;18.40;92.60
52189;DHT22;38162;45.926;13.608;2022-09-25T15:51:31;18.40;92.60
52189;DHT22;38162;45.926;13.608;2022-09-25T15:54:01;18.40;92.60
52189;DHT22;38162;45.926;13.608;2022-09-25T15:56:49;18.40;92.60
52189;DHT22;38162;45.926;13.608;2022-09-25T15:59:34;18.40;92.50
52189;DHT22;38162;45.926;13.608;2022-09-25T16:02:18;18.40;92.50
52189;DHT22;38162;45.926;13.608;2022-09-25T16:05:03;18.40;92.70
52189;DHT22;38162;45.926;13.608;2022-09-25T16:07:36;18.40;92.60
52189;DHT22;38162;45.926;13.608;2022-09-25T16:10:04;18.40;92.60
52189;DHT22;38162;45.926;13.608;2022-09-25T16:17:59;18.40;92.70
52189;DHT22;38162;45.926;13.608;2022-09-25T16:20:39;18.40;92.60
52189;DHT22;38162;45.926;13.608;2022-09-25T16:23:21;18.40;92.70
52189;DHT22;38162;45.926;13.608;2022-09-25T16:25:52;18.30;92.70
52189;DHT22;38162;45.926;13.608;2022-09-25T16:28:30;18.30;92.80
52189;DHT22;38162;45.926;13.608;2022-09-25T16:31:08;18.30;92.90
52189;DHT22;38162;45.926;13.608;2022-09-25T16:33:42;18.30;92.90
52189;DHT22;38162;45.926;13.608;2022-09-25T16:36:12;18.30;92.90
52189;DHT22;38162;45.926;13.608;2022-09-25T16:41:33;18.30;92.90
52189;DHT22;38162;45.926;13.608;2022-09-25T16:49:18;18.30;93.00
52189;DHT22;38162;45.926;13.608;2022-09-25T16:51:48;18.30;93.00
52189;DHT22;38162;45.926;13.608;2022-09-25T16:54:16;18.20;93.10
52189;DHT22;38162;45.926;13.608;2022-09-25T16:56:43;18.20;93.10
52189;DHT22;38162;45.926;13.608;2022-09-25T16:59:20;18.20;93.20
52189;DHT22;38162;45.926;13.608;2022-09-25T17:01:48;18.20;93.20
52189;DHT22;38162;45.926;13.608;2022-09-25T17:04:20;18.20;93.20
52189;DHT22;38162;45.926;13.608;2022-09-25T17:06:46;18.20;93.20
52189;DHT22;38162;45.926;13.608;2022-09-25T17:09:13;18.10;93.20
52189;DHT22;38162;45.926;13.608;2022-09-25T17:11:40;18.20;93.20
52189;DHT22;38162;45.926;13.608;2022-09-25T17:14:19;18.20;93.50
52189;DHT22;38162;45.926;13.608;2022-09-25T17:16:45;18.10;93.30
52189;DHT22;38162;45.926;13.608;2022-09-25T17:19:13;18.10;93.30
52189;DHT22;38162;45.926;13.608;2022-09-25T17:21:46;18.10;93.30
52189;DHT22;38162;45.926;13.608;2022-09-25T17:24:16;18.10;93.30
52189;DHT22;38162;45.926;13.608;2022-09-25T17:26:43;18.10;93.30
52189;DHT22;38162;45.926;13.608;2022-09-25T17:29:09;18.00;93.50
52189;DHT22;38162;45.926;13.608;2022-09-25T17:31:34;18.00;93.50
52189;DHT22;38162;45.926;13.608;2022-09-25T17:34:02;18.00;93.60
52189;DHT22;38162;45.926;13.608;2022-09-25T17:36:32;18.00;93.60
52189;DHT22;38162;45.926;13.608;2022-09-25T17:38:58;18.00;93.50
52189;DHT22;38162;45.926;13.608;2022-09-25T17:41:32;18.00;93.50
52189;DHT22;38162;45.926;13.608;2022-09-25T17:43:58;18.00;93.50
52189;DHT22;38162;45.926;13.608;2022-09-25T17:46:24;17.90;93.50
52189;DHT22;38162;45.926;13.608;2022-09-25T17:48:51;17.90;93.40
52189;DHT22;38162;45.926;13.608;2022-09-25T17:51:20;18.00;93.40
52189;DHT22;38162;45.926;13.608;2022-09-25T17:53:47;17.90;93.40
52189;DHT22;38162;45.926;13.608;2022-09-25T17:56:14;18.00;93.50
52189;DHT22;38162;45.926;13.608;2022-09-25T17:58:40;18.00;93.50
52189;DHT22;38162;45.926;13.608;2022-09-25T18:01:19;18.00;93.50
52189;DHT22;38162;45.926;13.608;2022-09-25T18:03:53;17.90;93.50
52189;DHT22;38162;45.926;13.608;2022-09-25T18:06:19;17.90;93.50
52189;DHT22;38162;45.926;13.608;2022-09-25T18:08:45;17.90;93.50
52189;DHT22;38162;45.926;13.608;2022-09-25T18:11:13;17.90;93.70
52189;DHT22;38162;45.926;13.608;2022-09-25T18:13:39;17.80;93.40
52189;DHT22;38162;45.926;13.608;2022-09-25T18:16:06;17.90;93.30
52189;DHT22;38162;45.926;13.608;2022-09-25T18:18:37;17.80;93.30
52189;DHT22;38162;45.926;13.608;2022-09-25T18:21:22;17.80;93.20
52189;DHT22;38162;45.926;13.608;2022-09-25T18:24:06;17.80;93.20
52189;DHT22;38162;45.926;13.608;2022-09-25T18:26:32;17.80;93.20
52189;DHT22;38162;45.926;13.608;2022-09-25T18:28:58;17.80;93.20
52189;DHT22;38162;45.926;13.608;2022-09-25T18:31:24;17.70;93.20
52189;DHT22;38162;45.926;13.608;2022-09-25T18:33:50;17.80;93.30
52189;DHT22;38162;45.926;13.608;2022-09-25T18:36:18;17.80;93.30
52189;DHT22;38162;45.926;13.608;2022-09-25T18:38:44;17.80;93.40
52189;DHT22;38162;45.926;13.608;2022-09-25T18:41:10;17.80;93.40
52189;DHT22;38162;45.926;13.608;2022-09-25T18:43:38;17.80;93.40
52189;DHT22;38162;45.926;13.608;2022-09-25T18:46:05;17.80;93.50
52189;DHT22;38162;45.926;13.608;2022-09-25T18:48:32;17.70;93.50
52189;DHT22;38162;45.926;13.608;2022-09-25T18:51:00;17.70;93.50
52189;DHT22;38162;45.926;13.608;2022-09-25T18:53:26;17.70;93.40
52189;DHT22;38162;45.926;13.608;2022-09-25T18:55:54;17.80;93.50
52189;DHT22;38162;45.926;13.608;2022-09-25T18:58:23;17.80;93.40
52189;DHT22;38162;45.926;13.608;2022-09-25T19:00:50;17.70;93.40
52189;DHT22;38162;45.926;13.608;2022-09-25T19:03:16;17.70;93.30
52189;DHT22;38162;45.926;13.608;2022-09-25T19:05:42;17.70;93.20
52189;DHT22;38162;45.926;13.608;2022-09-25T19:08:09;17.70;93.10
52189;DHT22;38162;45.926;13.608;2022-09-25T19:10:35;17.70;93.10
52189;DHT22;38162;45.926;13.608;2022-09-25T19:13:03;17.70;93.10
52189;DHT22;38162;45.926;13.608;2022-09-25T19:15:29;17.70;93.10
52189;DHT22;38162;45.926;13.608;2022-09-25T19:17:56;17.70;93.10
52189;DHT22;38162;45.926;13.608;2022-09-25T19:20:23;17.70;93.00
52189;DHT22;38162;45.926;13.608;2022-09-25T19:22:50;17.70;93.10
52189;DHT22;38162;45.926;13.608;2022-09-25T19:25:19;17.70;93.10
52189;DHT22;38162;45.926;13.608;2022-09-25T19:27:46;17.70;93.00
52189;DHT22;38162;45.926;13.608;2022-09-25T19:30:12;17.70;93.00
52189;DHT22;38162;45.926;13.608;2022-09-25T19:32:38;17.70;92.90
52189;DHT22;38162;45.926;13.608;2022-09-25T19:35:04;17.70;92.90
52189;DHT22;38162;45.926;13.608;2022-09-25T19:37:32;17.60;92.80
52189;DHT22;38162;45.926;13.608;2022-09-25T19:40:02;17.60;92.80
52189;DHT22;38162;45.926;13.608;2022-09-25T19:42:48;17.60;92.90
52189;DHT22;38162;45.926;13.608;2022-09-25T19:45:15;17.60;92.90
52189;DHT22;38162;45.926;13.608;2022-09-25T19:47:41;17.60;92.90
52189;DHT22;38162;45.926;13.608;2022-09-25T19:50:07;17.60;92.90
52189;DHT22;38162;45.926;13.608;2022-09-25T19:52:35;17.60;93.00
52189;DHT22;38162;45.926;13.608;2022-09-25T19:55:03;17.60;92.90
52189;DHT22;38162;45.926;13.608;2022-09-25T19:57:28;17.60;92.90
52189;DHT22;38162;45.926;13.608;2022-09-25T19:59:55;17.60;92.90
52189;DHT22;38162;45.926;13.608;2022-09-25T20:02:21;17.60;92.90
52189;DHT22;38162;45.926;13.608;2022-09-25T20:04:47;17.60;92.90
52189;DHT22;38162;45.926;13.608;2022-09-25T20:07:14;17.60;92.90
52189;DHT22;38162;45.926;13.608;2022-09-25T20:09:41;17.50;92.80
52189;DHT22;38162;45.926;13.608;2022-09-25T20:12:09;17.60;92.80
52189;DHT22;38162;45.926;13.608;2022-09-25T20:14:36;17.50;92.80
52189;DHT22;38162;45.926;13.608;2022-09-25T20:17:02;17.50;93.10
52189;DHT22;38162;45.926;13.608;2022-09-25T20:19:29;17.50;92.80
52189;DHT22;38162;45.926;13.608;2022-09-25T20:21:55;17.50;92.90
52189;DHT22;38162;45.926;13.608;2022-09-25T20:24:21;17.50;92.90
52189;DHT22;38162;45.926;13.608;2022-09-25T20:26:47;17.50;92.90
52189;DHT22;38162;45.926;13.608;2022-09-25T20:29:14;17.50;93.00
52189;DHT22;38162;45.926;13.608;2022-09-25T20:31:42;17.50;93.00
52189;DHT22;38162;45.926;13.608;2022-09-25T20:34:17;17.50;93.30
52189;DHT22;38162;45.926;13.608;2022-09-25T20:36:44;17.50;93.00
52189;DHT22;38162;45.926;13.608;2022-09-25T20:39:11;17.50;93.00
52189;DHT22;38162;45.926;13.608;2022-09-25T20:41:37;17.50;93.00
52189;DHT22;38162;45.926;13.608;2022-09-25T20:44:04;17.50;93.10
52189;DHT22;38162;45.926;13.608;2022-09-25T20:46:32;17.50;93.00
52189;DHT22;38162;45.926;13.608;2022-09-25T20:48:59;17.50;93.00
52189;DHT22;38162;45.926;13.608;2022-09-25T20:51:32;17.50;93.10
52189;DHT22;38162;45.926;13.608;2022-09-25T20:54:05;17.50;93.10
52189;DHT22;38162;45.926;13.608;2022-09-25T20:56:31;17.50;93.20
52189;DHT22;38162;45.926;13.608;2022-09-25T20:59:00;17.50;93.20
52189;DHT22;38162;45.926;13.608;2022-09-25T21:01:29;17.50;93.20
52189;DHT22;38162;45.926;13.608;2022-09-25T21:03:59;17.40;93.10
52189;DHT22;38162;45.926;13.608;2022-09-25T21:06:30;17.40;93.10
52189;DHT22;38162;45.926;13.608;2022-09-25T21:08:59;17.40;93.10
52189;DHT22;38162;45.926;13.608;2022-09-25T21:11:27;17.40;93.10
52189;DHT22;38162;45.926;13.608;2022-09-25T21:13:57;17.40;93.00
52189;DHT22;38162;45.926;13.608;2022-09-25T21:16:25;17.40;93.00
52189;DHT22;38162;45.926;13.608;2022-09-25T21:18:53;17.40;93.10
52189;DHT22;38162;45.926;13.608;2022-09-25T21:21:19;17.40;93.20
52189;DHT22;38162;45.926;13.608;2022-09-25T21:23:50;17.40;93.40
52189;DHT22;38162;45.926;13.608;2022-09-25T21:26:18;17.40;93.40
52189;DHT22;38162;45.926;13.608;2022-09-25T21:28:47;17.40;93.40
52189;DHT22;38162;45.926;13.608;2022-09-25T21:31:18;17.40;93.30
52189;DHT22;38162;45.926;13.608;2022-09-25T21:33:45;17.40;93.30
52189;DHT22;38162;45.926;13.608;2022-09-25T21:36:13;17.40;93.30
52189;DHT22;38162;45.926;13.608;2022-09-25T21:38:40;17.40;93.30
52189;DHT22;38162;45.926;13.608;2022-09-25T21:41:10;17.40;93.30
52189;DHT22;38162;45.926;13.608;2022-09-25T21:43:36;17.40;93.30
52189;DHT22;38162;45.926;13.608;2022-09-25T21:46:14;17.40;93.30
52189;DHT22;38162;45.926;13.608;2022-09-25T21:48:45;17.30;93.30
52189;DHT22;38162;45.926;13.608;2022-09-25T21:51:12;17.40;93.40
52189;DHT22;38162;45.926;13.608;2022-09-25T21:53:39;17.30;93.40
52189;DHT22;38162;45.926;13.608;2022-09-25T21:56:10;17.40;93.40
52189;DHT22;38162;45.926;13.608;2022-09-25T21:58:36;17.30;93.40
52189;DHT22;38162;45.926;13.608;2022-09-25T22:01:08;17.40;93.50
52189;DHT22;38162;45.926;13.608;2022-09-25T22:03:35;17.40;93.50
52189;DHT22;38162;45.926;13.608;2022-09-25T22:06:10;17.30;93.50
52189;DHT22;38162;45.926;13.608;2022-09-25T22:08:40;17.40;93.60
52189;DHT22;38162;45.926;13.608;2022-09-25T22:11:07;17.30;93.50
52189;DHT22;38162;45.926;13.608;2022-09-25T22:13:35;17.30;93.50
52189;DHT22;38162;45.926;13.608;2022-09-25T22:19:04;17.30;93.60
52189;DHT22;38162;45.926;13.608;2022-09-25T22:21:32;17.30;93.70
52189;DHT22;38162;45.926;13.608;2022-09-25T22:23:58;17.30;93.90
52189;DHT22;38162;45.926;13.608;2022-09-25T22:26:25;17.30;94.00
52189;DHT22;38162;45.926;13.608;2022-09-25T22:28:52;17.30;94.10
52189;DHT22;38162;45.926;13.608;2022-09-25T22:31:20;17.30;94.20
52189;DHT22;38162;45.926;13.608;2022-09-25T22:33:48;17.30;94.10
52189;DHT22;38162;45.926;13.608;2022-09-25T22:36:16;17.30;94.10
52189;DHT22;38162;45.926;13.608;2022-09-25T22:38:42;17.20;94.20
52189;DHT22;38162;45.926;13.608;2022-09-25T22:41:10;17.20;94.20
52189;DHT22;38162;45.926;13.608;2022-09-25T22:43:36;17.20;94.30
52189;DHT22;38162;45.926;13.608;2022-09-25T22:46:03;17.20;94.30
52189;DHT22;38162;45.926;13.608;2022-09-25T22:48:29;17.20;94.30
52189;DHT22;38162;45.926;13.608;2022-09-25T22:51:04;17.20;94.30
52189;DHT22;38162;45.926;13.608;2022-09-25T22:53:31;17.20;94.30
52189;DHT22;38162;45.926;13.608;2022-09-25T22:56:08;17.10;94.30
52189;DHT22;38162;45.926;13.608;2022-09-25T22:58:34;17.20;94.30
52189;DHT22;38162;45.926;13.608;2022-09-25T23:01:00;17.10;94.30
52189;DHT22;38162;45.926;13.608;2022-09-25T23:03:27;17.10;94.30
52189;DHT22;38162;45.926;13.608;2022-09-25T23:05:52;17.10;94.30
52189;DHT22;38162;45.926;13.608;2022-09-25T23:08:18;17.10;94.20
52189;DHT22;38162;45.926;13.608;2022-09-25T23:10:44;17.00;94.20
52189;DHT22;38162;45.926;13.608;2022-09-25T23:13:10;17.00;94.20
52189;DHT22;38162;45.926;13.608;2022-09-25T23:15:38;17.00;94.20
52189;DHT22;38162;45.926;13.608;2022-09-25T23:18:05;17.00;94.20
52189;DHT22;38162;45.926;13.608;2022-09-25T23:20:31;17.00;94.30
52189;DHT22;38162;45.926;13.608;2022-09-25T23:22:58;17.00;94.40
52189;DHT22;38162;45.926;13.608;2022-09-25T23:25:23;17.00;94.50
52189;DHT22;38162;45.926;13.608;2022-09-25T23:27:49;17.00;94.60
52189;DHT22;38162;45.926;13.608;2022-09-25T23:30:15;17.00;94.70
52189;DHT22;38162;45.926;13.608;2022-09-25T23:32:42;17.00;94.60
52189;DHT22;38162;45.926;13.608;2022-09-25T23:35:08;17.00;94.70
52189;DHT22;38162;45.926;13.608;2022-09-25T23:37:34;17.00;94.70
52189;DHT22;38162;45.926;13.608;2022-09-25T23:40:00;17.00;94.70
52189;DHT22;38162;45.926;13.608;2022-09-25T23:42:26;17.00;94.80
52189;DHT22;38162;45.926;13.608;2022-09-25T23:44:52;17.00;94.70
52189;DHT22;38162;45.926;13.608;2022-09-25T23:47:17;17.00;94.70
52189;DHT22;38162;45.926;13.608;2022-09-25T23:49:43;17.00;94.80
52189;DHT22;38162;45.926;13.608;2022-09-25T23:52:09;17.00;94.80
52189;DHT22;38162;45.926;13.608;2022-09-25T23:54:34;17.00;94.90
52189;DHT22;38162;45.926;13.608;2022-09-25T23:57:01;17.00;95.00
52189;DHT22;38162;45.926;13.608;2022-09-25T23:59:28;17.00;95.00
